Time;durP1;ratioP1;P1;durP2;ratioP2;P2;SDS_P1;SDS_P2;PMS_P1;PMS_P2;Temp;Humidity;BMP_temperature;BMP_pressure;BME280_temperature;BME280_humidity;BME280_pressure;Samples;Min_cycle;Max_cycle;Signal;HPM_P1;HPM_P2
2022/01/29 00:00:11;;;;;;;;;;;;;;;;;;2086066;28;19913;-76
2022/01/29 00:01:11;;;;;;;;;;;;;;;;;;2076820;28;19914;-76
2022/01/29 00:02:16;;;;;;;;;;;;;;;;;;2077962;28;19914;-76
2022/01/29 00:03:25;;;;;;;;;;;;;;;;;;2085719;28;19939;-76
2022/01/29 00:04:29;;;;;;;;;;;;;;;;;;2089366;28;19913;-75
2022/01/29 00:05:29;;;;;;;;;;;;;;;;;;2086474;28;19920;-76
2022/01/29 00:06:30;;;;;;;;;;;;;;;;;;2086442;28;19913;-77
2022/01/29 00:07:33;;;;;;;;;;;;;;;;;;2085713;28;19924;-75
2022/01/29 00:08:43;;;;;;;;;;;;;;;;;;2087107;28;19963;-78
2022/01/29 00:09:44;;;;;;;;;;;;;;;;;;2085666;28;19913;-75
2022/01/29 00:10:52;;;;;;;;;;;;;;;;;;2085370;28;19996;-75
2022/01/29 00:11:56;;;;;;;;;;;;;;;;;;2085054;28;19913;-75
2022/01/29 00:12:58;;;;;;;;;;;;;;;;;;2084997;28;20320;-75
2022/01/29 00:13:59;;;;;;;;;;;;;;;;;;2085183;28;19956;-77
2022/01/29 00:15:09;;;;;;;;;;;;;;;;;;2085385;28;20289;-76
2022/01/29 00:16:09;;;;;;;;;;;;;;;;;;2086450;28;19924;-75
2022/01/29 00:17:12;;;;;;;;;;;;;;;;;;2086479;28;19913;-76
2022/01/29 00:18:15;;;;;;;;;;;;;;;;;;2086123;28;19913;-74
2022/01/29 00:19:24;;;;;;;;;;;;;;;;;;2089024;28;19913;-76
2022/01/29 00:20:27;;;;;;;;;;;;;;;;;;2089346;28;19917;-75
2022/01/29 00:21:30;;;;;;;;;;;;;;;;;;2088327;28;19917;-75
2022/01/29 00:22:36;;;;;;;;;;;;;;;;;;2087203;28;19924;-76
2022/01/29 00:24:06;;;;;;;;;;;;;;;;;;;;;
2022/01/29 00:25:08;;;;;;;;;;;;;;;;;;2085397;28;20003;-75
2022/01/29 00:26:11;;;;;;;;;;;;;;;;;;2088100;28;19913;-76
2022/01/29 00:27:24;;;;;;;;;;;;;;;;;;;;;
2022/01/29 00:28:26;;;;;;;;;;;;;;;;;;2089506;28;19913;-75
2022/01/29 00:29:37;;;;;;;;;;;;;;;;;;2089409;28;19940;-76
2022/01/29 00:30:42;;;;;;;;;;;;;;;;;;2089282;28;20324;-75
2022/01/29 00:31:43;;;;;;;;;;;;;;;;;;2090061;28;19947;-75
2022/01/29 00:32:46;;;;;;;;;;;;;;;;;;2088783;28;19970;-73
2022/01/29 00:33:46;;;;;;;;;;;;;;;;;;2089440;28;20353;-75
2022/01/29 00:34:58;;;;;;;;;;;;;;;;;;2090584;28;19913;-75
2022/01/29 00:35:58;;;;;;;;;;;;;;;;;;2092039;28;19988;-74
2022/01/29 00:37:01;;;;;;;;;;;;;;;;;;2088726;28;19914;-73
2022/01/29 00:38:04;;;;;;;;;;;;;;;;;;2087396;28;19923;-73
2022/01/29 00:39:09;;;;;;;;;;;;;;;;;;2084958;28;19996;-76
2022/01/29 00:40:15;;;;;;;;;;;;;;;;;;2085218;28;20038;-75
2022/01/29 00:41:20;;;;;;;;;;;;;;;;;;2089234;28;19928;-76
2022/01/29 00:42:28;;;;;;;;;;;;;;;;;;2089679;28;19914;-76
2022/01/29 00:43:29;;;;;;;;;;;;;;;;;;2091621;28;19913;-75
2022/01/29 00:44:32;;;;;;;;;;;;;;;;;;2091381;28;19960;-75
2022/01/29 00:45:33;;;;;;;;;;;;;;;;;;2089304;28;19980;-76
2022/01/29 00:46:38;;;;;;;;;;;;;;;;;;2089664;28;20345;-75
2022/01/29 00:47:41;;;;;;;;;;;;;;;;;;2088956;28;19913;-73
2022/01/29 00:49:07;;;;;;;;;;;;;;;;;;2090874;28;19999;-73
2022/01/29 00:50:08;;;;;;;;;;;;;;;;;;2091362;28;19901;-75
2022/01/29 00:51:09;;;;;;;;;;;;;;;;;;2090123;28;19917;-75
2022/01/29 00:52:12;;;;;;;;;;;;;;;;;;2088965;28;20259;-76
2022/01/29 00:53:12;;;;;;;;;;;;;;;;;;2088873;28;20067;-76
2022/01/29 00:54:12;;;;;;;;;;;;;;;;;;2088290;28;19975;-76
2022/01/29 00:55:14;;;;;;;;;;;;;;;;;;2087668;28;19939;-76
2022/01/29 00:56:22;;;;;;;;;;;;;;;;;;2088468;28;19912;-75
2022/01/29 00:57:28;;;;;;;;;;;;;;;;;;2088424;28;20438;-75
2022/01/29 00:58:31;;;;;;;;;;;;;;;;;;2087423;28;20281;-75
2022/01/29 00:59:33;;;;;;;;;;;;;;;;;;2085562;28;19913;-75
2022/01/29 01:00:34;;;;;;;;;;;;;;;;;;2091961;28;19924;-76
2022/01/29 01:01:34;;;;;;;;;;;;;;;;;;2089313;28;19923;-77
2022/01/29 01:02:38;;;;;;;;;;;;;;;;;;2090367;28;20370;-76
2022/01/29 01:03:38;;;;;;;;;;;;;;;;;;2091128;28;19897;-75
2022/01/29 01:04:39;;;;;;;;;;;;;;;;;;2091426;28;19931;-75
2022/01/29 01:05:39;;;;;;;;;;;;;;;;;;2090999;28;19932;-75
2022/01/29 01:06:40;;;;;;;;;;;;;;;;;;2090296;28;19913;-75
2022/01/29 01:07:43;;;;;;;;;;;;;;;;;;2090284;28;19913;-76
2022/01/29 01:08:43;;;;;;;;;;;;;;;;;;2088996;28;19917;-75
2022/01/29 01:09:46;;;;;;;;;;;;;;;;;;2090054;28;19906;-76
2022/01/29 01:10:47;;;;;;;;;;;;;;;;;;2090374;28;19917;-75
2022/01/29 01:11:47;;;;;;;;;;;;;;;;;;2089417;28;20004;-75
2022/01/29 01:12:47;;;;;;;;;;;;;;;;;;2086663;28;19924;-75
2022/01/29 01:13:48;;;;;;;;;;;;;;;;;;2087167;28;19914;-76
2022/01/29 01:14:48;;;;;;;;;;;;;;;;;;2086077;28;19913;-75
2022/01/29 01:15:49;;;;;;;;;;;;;;;;;;2085487;28;19921;-75
2022/01/29 01:16:49;;;;;;;;;;;;;;;;;;2085434;28;19913;-76
2022/01/29 01:17:49;;;;;;;;;;;;;;;;;;2085872;28;19909;-76
2022/01/29 01:18:50;;;;;;;;;;;;;;;;;;2077061;28;19944;-76
2022/01/29 01:19:50;;;;;;;;;;;;;;;;;;2078298;28;20327;-76
2022/01/29 01:20:50;;;;;;;;;;;;;;;;;;2076219;28;19909;-77
2022/01/29 01:21:54;;;;;;;;;;;;;;;;;;2083378;28;20066;-77
2022/01/29 01:22:54;;;;;;;;;;;;;;;;;;2084420;28;19923;-76
2022/01/29 01:23:54;;;;;;;;;;;;;;;;;;2084298;28;19924;-76
2022/01/29 01:24:55;;;;;;;;;;;;;;;;;;2085087;28;20417;-76
2022/01/29 01:25:55;;;;;;;;;;;;;;;;;;2083414;28;20366;-76
2022/01/29 01:26:55;;;;;;;;;;;;;;;;;;2083560;28;19913;-77
2022/01/29 01:27:56;;;;;;;;;;;;;;;;;;2083595;28;19924;-76
2022/01/29 01:28:57;;;;;;;;;;;;;;;;;;2083555;28;20410;-76
2022/01/29 01:29:57;;;;;;;;;;;;;;;;;;2082243;28;20371;-76
2022/01/29 01:30:57;;;;;;;;;;;;;;;;;;2082010;28;19963;-76
2022/01/29 01:31:58;;;;;;;;;;;;;;;;;;2082573;28;20019;-76
2022/01/29 01:33:00;;;;;;;;;;;;;;;;;;2082007;28;19913;-77
2022/01/29 01:34:03;;;;;;;;;;;;;;;;;;2082248;28;19913;-76
2022/01/29 01:35:14;;;;;;;;;;;;;;;;;;2082095;28;19948;-76
2022/01/29 01:36:18;;;;;;;;;;;;;;;;;;2084168;28;20274;-76
2022/01/29 01:37:32;;;;;;;;;;;;;;;;;;2082687;28;19978;-77
2022/01/29 01:38:47;;;;;;;;;;;;;;;;;;2082109;28;19917;-76
2022/01/29 01:39:48;;;;;;;;;;;;;;;;;;2082381;28;19913;-76
2022/01/29 01:40:54;;;;;;;;;;;;;;;;;;2082609;28;20341;-76
2022/01/29 01:42:05;;;;;;;;;;;;;;;;;;2082743;28;19913;-76
2022/01/29 01:43:06;;;;;;;;;;;;;;;;;;2081996;28;19913;-76
2022/01/29 01:44:09;;;;;;;;;;;;;;;;;;2073931;28;19963;-76
2022/01/29 01:45:09;;;;;;;;;;;;;;;;;;2082148;28;19967;-76
2022/01/29 01:46:10;;;;;;;;;;;;;;;;;;2082007;28;19912;-76
2022/01/29 01:47:10;;;;;;;;;;;;;;;;;;2082087;28;19924;-76
2022/01/29 01:48:10;;;;;;;;;;;;;;;;;;2082565;28;20350;-76
2022/01/29 01:49:11;;;;;;;;;;;;;;;;;;2081997;28;19999;-77
2022/01/29 01:50:11;;;;;;;;;;;;;;;;;;2082183;28;20383;-78
2022/01/29 01:51:13;;;;;;;;;;;;;;;;;;2082371;28;19967;-76
2022/01/29 01:52:14;;;;;;;;;;;;;;;;;;2082544;28;19920;-76
2022/01/29 01:53:14;;;;;;;;;;;;;;;;;;2082542;28;20036;-76
2022/01/29 01:54:14;;;;;;;;;;;;;;;;;;2082463;28;19920;-80
2022/01/29 01:55:14;;;;;;;;;;;;;;;;;;2082464;28;20345;-77
2022/01/29 01:56:15;;;;;;;;;;;;;;;;;;2082429;28;19940;-77
2022/01/29 01:57:17;;;;;;;;;;;;;;;;;;2082350;28;20004;-77
2022/01/29 01:58:17;;;;;;;;;;;;;;;;;;2082468;28;19923;-77
2022/01/29 01:59:18;;;;;;;;;;;;;;;;;;2082562;28;19913;-77
2022/01/29 02:00:18;;;;;;;;;;;;;;;;;;2082432;28;20326;-77
2022/01/29 02:01:19;;;;;;;;;;;;;;;;;;2082357;28;20410;-77
2022/01/29 02:02:21;;;;;;;;;;;;;;;;;;2082401;28;19921;-77
2022/01/29 02:03:21;;;;;;;;;;;;;;;;;;2082451;28;19913;-75
2022/01/29 02:04:21;;;;;;;;;;;;;;;;;;2082312;28;19914;-75
2022/01/29 02:05:22;;;;;;;;;;;;;;;;;;2082484;28;19924;-76
2022/01/29 02:06:22;;;;;;;;;;;;;;;;;;2082289;28;20289;-75
2022/01/29 02:07:22;;;;;;;;;;;;;;;;;;2082388;28;19913;-75
2022/01/29 02:08:23;;;;;;;;;;;;;;;;;;2082369;28;20011;-76
2022/01/29 02:09:24;;;;;;;;;;;;;;;;;;2082399;28;19913;-77
2022/01/29 02:10:27;;;;;;;;;;;;;;;;;;2082223;28;20372;-78
2022/01/29 02:11:27;;;;;;;;;;;;;;;;;;2082268;28;19935;-75
2022/01/29 02:12:31;;;;;;;;;;;;;;;;;;2081720;28;20368;-76
2022/01/29 02:13:32;;;;;;;;;;;;;;;;;;2074090;28;19913;-75
2022/01/29 02:14:34;;;;;;;;;;;;;;;;;;2081833;28;19917;-76
2022/01/29 02:15:34;;;;;;;;;;;;;;;;;;2082379;28;19913;-77
2022/01/29 02:16:34;;;;;;;;;;;;;;;;;;2082373;28;19996;-78
2022/01/29 02:17:35;;;;;;;;;;;;;;;;;;2082524;28;20353;-75
2022/01/29 02:18:37;;;;;;;;;;;;;;;;;;2081667;28;20016;-75
2022/01/29 02:19:37;;;;;;;;;;;;;;;;;;2081830;28;19949;-80
2022/01/29 02:20:38;;;;;;;;;;;;;;;;;;2081836;28;20297;-75
2022/01/29 02:21:39;;;;;;;;;;;;;;;;;;2081679;28;19913;-76
2022/01/29 02:22:40;;;;;;;;;;;;;;;;;;2081619;28;19920;-76
2022/01/29 02:23:40;;;;;;;;;;;;;;;;;;2081843;28;19924;-75
2022/01/29 02:24:41;;;;;;;;;;;;;;;;;;2082242;28;20019;-75
2022/01/29 02:25:48;;;;;;;;;;;;;;;;;;2082253;28;20346;-75
2022/01/29 02:26:49;;;;;;;;;;;;;;;;;;2081630;28;20435;-75
2022/01/29 02:27:49;;;;;;;;;;;;;;;;;;2081811;28;19982;-76
2022/01/29 02:28:49;;;;;;;;;;;;;;;;;;2082240;28;19936;-75
2022/01/29 02:29:50;;;;;;;;;;;;;;;;;;2082209;28;19945;-76
2022/01/29 02:31:00;;;;;;;;;;;;;;;;;;2082124;28;19953;-75
2022/01/29 02:32:00;;;;;;;;;;;;;;;;;;2082245;28;20038;-76
2022/01/29 02:33:06;;;;;;;;;;;;;;;;;;2081679;28;20345;-77
2022/01/29 02:34:06;;;;;;;;;;;;;;;;;;2081765;28;20262;-79
2022/01/29 02:35:06;;;;;;;;;;;;;;;;;;2082157;28;19975;-76
2022/01/29 02:36:07;;;;;;;;;;;;;;;;;;2081718;28;19924;-78
2022/01/29 02:37:07;;;;;;;;;;;;;;;;;;2081722;28;19956;-77
2022/01/29 02:38:11;;;;;;;;;;;;;;;;;;2082293;28;19943;-77
2022/01/29 02:39:12;;;;;;;;;;;;;;;;;;2082153;28;19917;-76
2022/01/29 02:40:13;;;;;;;;;;;;;;;;;;2082157;28;19913;-77
2022/01/29 02:41:13;;;;;;;;;;;;;;;;;;2082000;28;20258;-77
2022/01/29 02:42:13;;;;;;;;;;;;;;;;;;2082058;28;20003;-76
2022/01/29 02:43:16;;;;;;;;;;;;;;;;;;2082007;28;19920;-77
2022/01/29 02:44:21;;;;;;;;;;;;;;;;;;2082147;28;19948;-77
2022/01/29 02:45:21;;;;;;;;;;;;;;;;;;2082226;28;20362;-77
2022/01/29 02:46:30;;;;;;;;;;;;;;;;;;2082105;28;19917;-76
2022/01/29 02:47:33;;;;;;;;;;;;;;;;;;2083668;28;19913;-77
2022/01/29 02:48:34;;;;;;;;;;;;;;;;;;2082068;28;19913;-77
2022/01/29 02:49:34;;;;;;;;;;;;;;;;;;2082069;28;19913;-77
2022/01/29 02:50:35;;;;;;;;;;;;;;;;;;2082008;28;19960;-77
2022/01/29 02:51:35;;;;;;;;;;;;;;;;;;2081962;28;20281;-77
2022/01/29 02:52:35;;;;;;;;;;;;;;;;;;2082022;28;20361;-77
2022/01/29 02:53:36;;;;;;;;;;;;;;;;;;2082030;28;19913;-77
2022/01/29 02:54:36;;;;;;;;;;;;;;;;;;2082035;28;19913;-77
2022/01/29 02:55:37;;;;;;;;;;;;;;;;;;2082057;28;20341;-77
2022/01/29 02:56:37;;;;;;;;;;;;;;;;;;2081961;28;19944;-77
2022/01/29 02:57:37;;;;;;;;;;;;;;;;;;2082120;28;20345;-76
2022/01/29 02:58:38;;;;;;;;;;;;;;;;;;2082001;28;20327;-77
2022/01/29 02:59:38;;;;;;;;;;;;;;;;;;2082021;28;19917;-77
2022/01/29 03:00:39;;;;;;;;;;;;;;;;;;2081979;28;19947;-77
2022/01/29 03:01:39;;;;;;;;;;;;;;;;;;2082160;28;20373;-77
2022/01/29 03:02:40;;;;;;;;;;;;;;;;;;2081952;28;20329;-77
2022/01/29 03:03:40;;;;;;;;;;;;;;;;;;2082024;28;19996;-77
2022/01/29 03:04:40;;;;;;;;;;;;;;;;;;2081368;28;20366;-77
2022/01/29 03:05:40;;;;;;;;;;;;;;;;;;2081628;28;19920;-77
2022/01/29 03:06:41;;;;;;;;;;;;;;;;;;2081976;28;20028;-77
2022/01/29 03:07:41;;;;;;;;;;;;;;;;;;2082057;28;19913;-77
2022/01/29 03:08:41;;;;;;;;;;;;;;;;;;2081925;28;19905;-77
2022/01/29 03:09:42;;;;;;;;;;;;;;;;;;2082023;28;19913;-77
2022/01/29 03:10:42;;;;;;;;;;;;;;;;;;2081457;28;19967;-77
2022/01/29 03:11:42;;;;;;;;;;;;;;;;;;2081858;28;19990;-76
2022/01/29 03:12:43;;;;;;;;;;;;;;;;;;2081934;28;19913;-76
2022/01/29 03:13:43;;;;;;;;;;;;;;;;;;2081874;28;19952;-76
2022/01/29 03:14:43;;;;;;;;;;;;;;;;;;2081962;28;19940;-76
2022/01/29 03:15:43;;;;;;;;;;;;;;;;;;2081922;28;19975;-75
2022/01/29 03:16:44;;;;;;;;;;;;;;;;;;2081920;28;19913;-76
2022/01/29 03:17:44;;;;;;;;;;;;;;;;;;2081880;28;20286;-75
2022/01/29 03:18:44;;;;;;;;;;;;;;;;;;2081898;28;19917;-75
2022/01/29 03:19:45;;;;;;;;;;;;;;;;;;2081872;28;19936;-76
2022/01/29 03:20:45;;;;;;;;;;;;;;;;;;2081828;28;20431;-76
2022/01/29 03:21:45;;;;;;;;;;;;;;;;;;2081251;28;19921;-75
2022/01/29 03:22:45;;;;;;;;;;;;;;;;;;2081387;28;20011;-76
2022/01/29 03:23:46;;;;;;;;;;;;;;;;;;2081324;28;19925;-75
2022/01/29 03:24:46;;;;;;;;;;;;;;;;;;2081299;28;20004;-76
2022/01/29 03:25:46;;;;;;;;;;;;;;;;;;2081390;28;20349;-76
2022/01/29 03:26:47;;;;;;;;;;;;;;;;;;2081884;28;19966;-75
2022/01/29 03:27:47;;;;;;;;;;;;;;;;;;2081777;28;20117;-76
2022/01/29 03:28:47;;;;;;;;;;;;;;;;;;2082047;28;20412;-75
2022/01/29 03:29:47;;;;;;;;;;;;;;;;;;2081833;28;19971;-75
2022/01/29 03:30:48;;;;;;;;;;;;;;;;;;2081736;28;20022;-75
2022/01/29 03:31:48;;;;;;;;;;;;;;;;;;2081603;28;19921;-75
2022/01/29 03:32:48;;;;;;;;;;;;;;;;;;2081253;28;19955;-75
2022/01/29 03:33:48;;;;;;;;;;;;;;;;;;2081380;28;19917;-75
2022/01/29 03:34:49;;;;;;;;;;;;;;;;;;2081797;28;19913;-74
2022/01/29 03:35:49;;;;;;;;;;;;;;;;;;2081696;28;19913;-75
2022/01/29 03:36:50;;;;;;;;;;;;;;;;;;2081747;28;19920;-75
2022/01/29 03:37:50;;;;;;;;;;;;;;;;;;2081827;28;20004;-75
2022/01/29 03:38:50;;;;;;;;;;;;;;;;;;2081796;28;19982;-75
2022/01/29 03:39:52;;;;;;;;;;;;;;;;;;2081212;28;20385;-75
2022/01/29 03:40:53;;;;;;;;;;;;;;;;;;2081316;28;19964;-75
2022/01/29 03:41:55;;;;;;;;;;;;;;;;;;2081678;28;19980;-75
2022/01/29 03:43:01;;;;;;;;;;;;;;;;;;2081710;28;20003;-75
2022/01/29 03:44:05;;;;;;;;;;;;;;;;;;2081812;28;20434;-75
2022/01/29 03:45:09;;;;;;;;;;;;;;;;;;2081741;28;19940;-75
2022/01/29 03:46:09;;;;;;;;;;;;;;;;;;2081166;28;19924;-76
2022/01/29 03:47:09;;;;;;;;;;;;;;;;;;2081137;28;19913;-76
2022/01/29 03:48:10;;;;;;;;;;;;;;;;;;2081208;28;20286;-75
2022/01/29 03:49:10;;;;;;;;;;;;;;;;;;2081303;28;19949;-76
2022/01/29 03:50:10;;;;;;;;;;;;;;;;;;2081219;28;19913;-75
2022/01/29 03:51:11;;;;;;;;;;;;;;;;;;2081028;28;20389;-75
2022/01/29 03:52:11;;;;;;;;;;;;;;;;;;2081160;28;19982;-76
2022/01/29 03:53:11;;;;;;;;;;;;;;;;;;2081244;28;19913;-75
2022/01/29 03:54:12;;;;;;;;;;;;;;;;;;2072984;28;21153;-76
2022/01/29 03:55:12;;;;;;;;;;;;;;;;;;2081231;28;19913;-76
2022/01/29 03:56:12;;;;;;;;;;;;;;;;;;2081806;28;19967;-76
2022/01/29 03:57:13;;;;;;;;;;;;;;;;;;2081819;28;20377;-76
2022/01/29 03:58:13;;;;;;;;;;;;;;;;;;2081703;28;20403;-76
2022/01/29 03:59:13;;;;;;;;;;;;;;;;;;2081692;28;19914;-77
2022/01/29 04:00:14;;;;;;;;;;;;;;;;;;2081563;28;19913;-76
2022/01/29 04:01:14;;;;;;;;;;;;;;;;;;2081587;28;19919;-76
2022/01/29 04:02:14;;;;;;;;;;;;;;;;;;2081682;28;19963;-76
2022/01/29 04:03:15;;;;;;;;;;;;;;;;;;2081668;28;19921;-76
2022/01/29 04:04:15;;;;;;;;;;;;;;;;;;2081677;28;19987;-76
2022/01/29 04:05:15;;;;;;;;;;;;;;;;;;2081063;28;19921;-76
2022/01/29 04:06:15;;;;;;;;;;;;;;;;;;2081192;28;20408;-76
2022/01/29 04:07:16;;;;;;;;;;;;;;;;;;2081417;28;19921;-76
2022/01/29 04:08:18;;;;;;;;;;;;;;;;;;2081640;28;20373;-76
2022/01/29 04:09:19;;;;;;;;;;;;;;;;;;2081555;28;19913;-76
2022/01/29 04:10:22;;;;;;;;;;;;;;;;;;2081703;28;19913;-76
2022/01/29 04:11:22;;;;;;;;;;;;;;;;;;2081565;28;19917;-77
2022/01/29 04:12:25;;;;;;;;;;;;;;;;;;2081685;28;19924;-76
2022/01/29 04:13:27;;;;;;;;;;;;;;;;;;2081622;28;20015;-77
2022/01/29 04:14:33;;;;;;;;;;;;;;;;;;2081607;28;19913;-76
2022/01/29 04:15:33;;;;;;;;;;;;;;;;;;2082376;28;19983;-76
2022/01/29 04:16:34;;;;;;;;;;;;;;;;;;2081699;28;19979;-77
2022/01/29 04:17:34;;;;;;;;;;;;;;;;;;2081499;28;20381;-76
2022/01/29 04:18:34;;;;;;;;;;;;;;;;;;2081635;28;19921;-76
2022/01/29 04:19:35;;;;;;;;;;;;;;;;;;2081598;28;19913;-76
2022/01/29 04:20:35;;;;;;;;;;;;;;;;;;2080984;28;19921;-76
2022/01/29 04:21:35;;;;;;;;;;;;;;;;;;2081138;28;20039;-76
2022/01/29 04:22:36;;;;;;;;;;;;;;;;;;2081069;28;19947;-76
2022/01/29 04:23:37;;;;;;;;;;;;;;;;;;2082624;28;19913;-77
2022/01/29 04:24:37;;;;;;;;;;;;;;;;;;2090855;28;19969;-76
2022/01/29 04:25:38;;;;;;;;;;;;;;;;;;2091075;28;19974;-77
2022/01/29 04:26:38;;;;;;;;;;;;;;;;;;2083198;28;19921;-76
2022/01/29 04:27:44;;;;;;;;;;;;;;;;;;2083139;28;19913;-77
2022/01/29 04:28:46;;;;;;;;;;;;;;;;;;2082651;28;19940;-77
2022/01/29 04:29:56;;;;;;;;;;;;;;;;;;2082775;28;19946;-76
2022/01/29 04:31:01;;;;;;;;;;;;;;;;;;2082508;28;19932;-77
2022/01/29 04:32:09;;;;;;;;;;;;;;;;;;2082634;28;19982;-76
2022/01/29 04:33:24;;;;;;;;;;;;;;;;;;2083411;28;19917;-77
2022/01/29 04:34:24;;;;;;;;;;;;;;;;;;2082501;28;20425;-76
2022/01/29 04:35:25;;;;;;;;;;;;;;;;;;2082745;28;19917;-76
2022/01/29 04:36:25;;;;;;;;;;;;;;;;;;2082541;28;19924;-76
2022/01/29 04:37:25;;;;;;;;;;;;;;;;;;2082540;28;19914;-78
2022/01/29 04:38:26;;;;;;;;;;;;;;;;;;2082584;28;20041;-76
2022/01/29 04:39:27;;;;;;;;;;;;;;;;;;2082449;28;20400;-77
2022/01/29 04:40:27;;;;;;;;;;;;;;;;;;2082506;28;19959;-76
2022/01/29 04:41:27;;;;;;;;;;;;;;;;;;2090618;28;19913;-77
2022/01/29 04:42:28;;;;;;;;;;;;;;;;;;2090824;28;19913;-76
2022/01/29 04:43:28;;;;;;;;;;;;;;;;;;2083008;28;19924;-77
2022/01/29 04:44:28;;;;;;;;;;;;;;;;;;2083054;28;19913;-77
2022/01/29 04:45:31;;;;;;;;;;;;;;;;;;2082533;28;20362;-76
2022/01/29 04:46:31;;;;;;;;;;;;;;;;;;2082446;28;19967;-76
2022/01/29 04:47:31;;;;;;;;;;;;;;;;;;2082590;28;19913;-76
2022/01/29 04:48:31;;;;;;;;;;;;;;;;;;2082998;28;19967;-77
2022/01/29 04:49:31;;;;;;;;;;;;;;;;;;2082493;28;19924;-76
2022/01/29 04:50:32;;;;;;;;;;;;;;;;;;2082546;28;19913;-76
2022/01/29 04:51:32;;;;;;;;;;;;;;;;;;2082345;28;20368;-78
2022/01/29 04:52:32;;;;;;;;;;;;;;;;;;2082448;28;19913;-77
2022/01/29 04:53:33;;;;;;;;;;;;;;;;;;2082411;28;20365;-78
2022/01/29 04:54:33;;;;;;;;;;;;;;;;;;2074338;28;19914;-77
2022/01/29 04:55:34;;;;;;;;;;;;;;;;;;2082402;28;20404;-76
2022/01/29 04:56:34;;;;;;;;;;;;;;;;;;2082466;28;19912;-76
2022/01/29 04:57:37;;;;;;;;;;;;;;;;;;2082460;28;19917;-77
2022/01/29 04:58:37;;;;;;;;;;;;;;;;;;2083066;28;20299;-76
2022/01/29 04:59:38;;;;;;;;;;;;;;;;;;2082875;28;19913;-76
2022/01/29 05:00:38;;;;;;;;;;;;;;;;;;2082935;28;19996;-76
2022/01/29 05:01:39;;;;;;;;;;;;;;;;;;2082765;28;19913;-76
2022/01/29 05:02:39;;;;;;;;;;;;;;;;;;2082979;28;19924;-76
2022/01/29 05:03:39;;;;;;;;;;;;;;;;;;2082872;28;19929;-76
2022/01/29 05:04:39;;;;;;;;;;;;;;;;;;2082868;28;19920;-77
2022/01/29 05:05:40;;;;;;;;;;;;;;;;;;2082815;28;19982;-78
2022/01/29 05:06:40;;;;;;;;;;;;;;;;;;2082409;28;19923;-76
2022/01/29 05:07:41;;;;;;;;;;;;;;;;;;2082467;28;20563;-76
2022/01/29 05:08:41;;;;;;;;;;;;;;;;;;2082903;28;19945;-77
2022/01/29 05:09:41;;;;;;;;;;;;;;;;;;2082948;28;20251;-76
2022/01/29 05:10:42;;;;;;;;;;;;;;;;;;2082314;28;20365;-76
2022/01/29 05:11:45;;;;;;;;;;;;;;;;;;2082339;28;19913;-76
2022/01/29 05:12:52;;;;;;;;;;;;;;;;;;2082823;28;19944;-77
2022/01/29 05:13:53;;;;;;;;;;;;;;;;;;2084300;28;19917;-76
2022/01/29 05:27:38;;;;;;;;;;;;;;;;;;2082848;28;19953;-76
2022/01/29 05:28:38;;;;;;;;;;;;;;;;;;2082579;28;19913;-77
2022/01/29 05:29:39;;;;;;;;;;;;;;;;;;2082588;28;20374;-76
2022/01/29 05:30:39;;;;;;;;;;;;;;;;;;2082455;28;20018;-76
2022/01/29 05:31:39;;;;;;;;;;;;;;;;;;2082366;28;20335;-76
2022/01/29 05:32:39;;;;;;;;;;;;;;;;;;2082633;28;19920;-75
2022/01/29 05:33:40;;;;;;;;;;;;;;;;;;2082289;28;20328;-76
2022/01/29 05:34:40;;;;;;;;;;;;;;;;;;2082473;28;19913;-76
2022/01/29 05:35:41;;;;;;;;;;;;;;;;;;2082514;28;20342;-76
2022/01/29 05:36:41;;;;;;;;;;;;;;;;;;2082447;28;20272;-76
2022/01/29 05:37:41;;;;;;;;;;;;;;;;;;2082409;28;19913;-76
2022/01/29 05:38:43;;;;;;;;;;;;;;;;;;2082606;28;19936;-75
2022/01/29 05:39:43;;;;;;;;;;;;;;;;;;2081956;28;19921;-75
2022/01/29 05:40:43;;;;;;;;;;;;;;;;;;2082017;28;20417;-76
2022/01/29 05:41:43;;;;;;;;;;;;;;;;;;2082348;28;19913;-77
2022/01/29 05:42:44;;;;;;;;;;;;;;;;;;2082498;28;20007;-76
2022/01/29 05:43:44;;;;;;;;;;;;;;;;;;2082394;28;20346;-76
2022/01/29 05:44:44;;;;;;;;;;;;;;;;;;2082566;28;20310;-76
2022/01/29 05:45:45;;;;;;;;;;;;;;;;;;2082363;28;20368;-77
2022/01/29 05:46:45;;;;;;;;;;;;;;;;;;2082543;28;19920;-75
2022/01/29 05:47:45;;;;;;;;;;;;;;;;;;2081878;28;19917;-77
2022/01/29 05:48:45;;;;;;;;;;;;;;;;;;2082052;28;20377;-76
2022/01/29 05:49:46;;;;;;;;;;;;;;;;;;2081797;28;19947;-78
2022/01/29 05:50:46;;;;;;;;;;;;;;;;;;2082003;28;19923;-76
2022/01/29 05:51:46;;;;;;;;;;;;;;;;;;2082083;28;20338;-77
2022/01/29 05:52:47;;;;;;;;;;;;;;;;;;2081805;28;19913;-76
2022/01/29 05:53:47;;;;;;;;;;;;;;;;;;2081998;28;19923;-75
2022/01/29 05:54:48;;;;;;;;;;;;;;;;;;2081883;28;19913;-76
2022/01/29 05:55:49;;;;;;;;;;;;;;;;;;2081833;28;19940;-77
2022/01/29 05:56:49;;;;;;;;;;;;;;;;;;2081747;28;19921;-78
2022/01/29 05:57:49;;;;;;;;;;;;;;;;;;2081979;28;20003;-78
2022/01/29 05:58:49;;;;;;;;;;;;;;;;;;2082351;28;19943;-76
2022/01/29 05:59:52;;;;;;;;;;;;;;;;;;2082335;28;19921;-75
2022/01/29 06:00:52;;;;;;;;;;;;;;;;;;2082531;28;19981;-76
2022/01/29 06:01:53;;;;;;;;;;;;;;;;;;2081709;28;19921;-77
2022/01/29 06:03:03;;;;;;;;;;;;;;;;;;2081909;28;19951;-75
2022/01/29 06:04:05;;;;;;;;;;;;;;;;;;2082315;28;19927;-78
2022/01/29 06:05:06;;;;;;;;;;;;;;;;;;2082194;28;20008;-76
2022/01/29 06:06:06;;;;;;;;;;;;;;;;;;2081660;28;20393;-77
2022/01/29 06:07:06;;;;;;;;;;;;;;;;;;2081721;28;19952;-77
2022/01/29 06:08:07;;;;;;;;;;;;;;;;;;2082284;28;19913;-76
2022/01/29 06:09:07;;;;;;;;;;;;;;;;;;2081721;28;20019;-76
2022/01/29 06:10:08;;;;;;;;;;;;;;;;;;2081884;28;19923;-76
2022/01/29 06:11:08;;;;;;;;;;;;;;;;;;2081517;28;20286;-77
2022/01/29 06:12:08;;;;;;;;;;;;;;;;;;2081809;28;19944;-76
2022/01/29 06:13:10;;;;;;;;;;;;;;;;;;2081835;28;20285;-76
2022/01/29 06:14:12;;;;;;;;;;;;;;;;;;2081443;28;19974;-76
2022/01/29 06:15:12;;;;;;;;;;;;;;;;;;2073666;28;19914;-76
2022/01/29 06:16:12;;;;;;;;;;;;;;;;;;2081835;28;19913;-76
2022/01/29 06:17:13;;;;;;;;;;;;;;;;;;2089835;28;20352;-76
2022/01/29 06:18:17;;;;;;;;;;;;;;;;;;2090044;28;19913;-76
2022/01/29 06:19:17;;;;;;;;;;;;;;;;;;2082115;28;19952;-76
2022/01/29 06:20:17;;;;;;;;;;;;;;;;;;2081702;28;19913;-76
2022/01/29 06:21:18;;;;;;;;;;;;;;;;;;2081668;28;19917;-76
2022/01/29 06:22:18;;;;;;;;;;;;;;;;;;2082253;28;19956;-76
2022/01/29 06:23:24;;;;;;;;;;;;;;;;;;2082085;28;19913;-76
2022/01/29 06:24:24;;;;;;;;;;;;;;;;;;2082197;28;19913;-77
2022/01/29 06:25:24;;;;;;;;;;;;;;;;;;2082191;28;19917;-76
2022/01/29 06:26:25;;;;;;;;;;;;;;;;;;2081635;28;19924;-76
2022/01/29 06:27:25;;;;;;;;;;;;;;;;;;2073573;28;19928;-76
2022/01/29 06:28:25;;;;;;;;;;;;;;;;;;2081622;28;19940;-76
2022/01/29 06:29:25;;;;;;;;;;;;;;;;;;2082155;28;19927;-75
2022/01/29 06:30:26;;;;;;;;;;;;;;;;;;2081932;28;19913;-75
2022/01/29 06:31:26;;;;;;;;;;;;;;;;;;2081796;28;20281;-75
2022/01/29 06:32:26;;;;;;;;;;;;;;;;;;2082113;28;19913;-75
2022/01/29 06:33:26;;;;;;;;;;;;;;;;;;2082180;28;19924;-75
2022/01/29 06:34:27;;;;;;;;;;;;;;;;;;2082099;28;19913;-75
2022/01/29 06:35:27;;;;;;;;;;;;;;;;;;2082033;28;20067;-76
2022/01/29 06:36:27;;;;;;;;;;;;;;;;;;2082101;28;19921;-76
2022/01/29 06:37:28;;;;;;;;;;;;;;;;;;2082057;28;20372;-75
2022/01/29 06:38:28;;;;;;;;;;;;;;;;;;2082055;28;19979;-75
2022/01/29 06:39:28;;;;;;;;;;;;;;;;;;2081957;28;19913;-76
2022/01/29 06:40:28;;;;;;;;;;;;;;;;;;2081565;28;19913;-76
2022/01/29 06:41:29;;;;;;;;;;;;;;;;;;2073296;28;19960;-76
2022/01/29 06:42:29;;;;;;;;;;;;;;;;;;2081410;28;19913;-76
2022/01/29 06:43:29;;;;;;;;;;;;;;;;;;2082022;28;19913;-76
2022/01/29 06:44:30;;;;;;;;;;;;;;;;;;2081988;28;20494;-76
2022/01/29 06:45:30;;;;;;;;;;;;;;;;;;2081494;28;19913;-76
2022/01/29 06:46:30;;;;;;;;;;;;;;;;;;2081261;28;19925;-76
2022/01/29 06:47:31;;;;;;;;;;;;;;;;;;2081458;28;19913;-76
2022/01/29 06:48:31;;;;;;;;;;;;;;;;;;2081461;28;20369;-76
2022/01/29 06:49:32;;;;;;;;;;;;;;;;;;2081940;28;19913;-76
2022/01/29 06:50:33;;;;;;;;;;;;;;;;;;2081375;28;19912;-76
2022/01/29 06:51:33;;;;;;;;;;;;;;;;;;2081385;28;19921;-76
2022/01/29 06:52:33;;;;;;;;;;;;;;;;;;2081415;28;20406;-76
2022/01/29 06:53:33;;;;;;;;;;;;;;;;;;2081593;28;19998;-76
2022/01/29 06:54:33;;;;;;;;;;;;;;;;;;2081889;28;19913;-76
2022/01/29 06:55:34;;;;;;;;;;;;;;;;;;2081967;28;19924;-75
2022/01/29 06:56:34;;;;;;;;;;;;;;;;;;2081895;28;20332;-76
2022/01/29 06:57:35;;;;;;;;;;;;;;;;;;2082029;28;20397;-76
2022/01/29 06:58:35;;;;;;;;;;;;;;;;;;2081963;28;19917;-76
2022/01/29 06:59:36;;;;;;;;;;;;;;;;;;2081888;28;19943;-76
2022/01/29 07:00:36;;;;;;;;;;;;;;;;;;2081288;28;19913;-76
2022/01/29 07:01:36;;;;;;;;;;;;;;;;;;2073141;28;19905;-76
2022/01/29 07:02:37;;;;;;;;;;;;;;;;;;2081399;28;19913;-76
2022/01/29 07:03:37;;;;;;;;;;;;;;;;;;2081906;28;20344;-76
2022/01/29 07:04:37;;;;;;;;;;;;;;;;;;2081795;28;19921;-75
2022/01/29 07:05:37;;;;;;;;;;;;;;;;;;2081907;28;19939;-75
2022/01/29 07:06:38;;;;;;;;;;;;;;;;;;2081349;28;19917;-75
2022/01/29 07:07:38;;;;;;;;;;;;;;;;;;2081471;28;19971;-77
2022/01/29 07:08:39;;;;;;;;;;;;;;;;;;2081941;28;19927;-76
2022/01/29 07:09:39;;;;;;;;;;;;;;;;;;2081908;28;20338;-75
2022/01/29 07:10:40;;;;;;;;;;;;;;;;;;2081826;28;20353;-76
2022/01/29 07:11:44;;;;;;;;;;;;;;;;;;2081175;28;19913;-76
2022/01/29 07:12:45;;;;;;;;;;;;;;;;;;2081406;28;19923;-76